Time;durP1;ratioP1;P1;durP2;ratioP2;P2;SDS_P1;SDS_P2;PMS_P1;PMS_P2;Temp;Humidity;BMP_temperature;BMP_pressure;BME280_temperature;BME280_humidity;BME280_pressure;Samples;Min_cycle;Max_cycle;Signal;HPM_P1;HPM_P2
2022/07/18 00:00:07;;;;;;;6.32;4.85;;;15.30;99.90;;;;;;5052293;28;20045;-73
2022/07/18 00:02:32;;;;;;;8.50;5.13;;;15.20;99.90;;;;;;5052943;28;20053;-73
2022/07/18 00:04:58;;;;;;;6.97;4.90;;;15.20;99.90;;;;;;5053279;28;20499;-73
2022/07/18 00:07:24;;;;;;;7.32;5.00;;;15.10;99.90;;;;;;5021948;28;20040;-73
2022/07/18 00:09:49;;;;;;;9.02;4.97;;;15.00;99.90;;;;;;5040685;28;20136;-73
2022/07/18 00:12:15;;;;;;;6.82;5.13;;;15.00;99.90;;;;;;5032291;28;20064;-74
2022/07/18 00:14:41;;;;;;;7.78;5.15;;;15.10;99.90;;;;;;5040034;28;20135;-73
2022/07/18 00:17:08;;;;;;;7.65;5.10;;;15.00;99.90;;;;;;5017887;28;20041;-73
2022/07/18 00:19:34;;;;;;;10.20;5.80;;;15.00;99.90;;;;;;5031452;28;20045;-74
2022/07/18 00:22:01;;;;;;;9.85;5.57;;;14.90;99.90;;;;;;5035340;28;20132;-72
2022/07/18 00:24:27;;;;;;;6.72;5.45;;;15.00;99.90;;;;;;5042763;28;20067;-74
2022/07/18 00:26:53;;;;;;;7.40;4.70;;;15.00;99.90;;;;;;5036511;28;20494;-74
2022/07/18 00:29:19;;;;;;;6.82;4.85;;;14.90;99.90;;;;;;5039868;28;20044;-73
2022/07/18 00:31:45;;;;;;;7.65;5.13;;;14.80;99.90;;;;;;5032616;28;20084;-74
2022/07/18 00:34:10;;;;;;;10.75;5.57;;;14.90;99.90;;;;;;5042202;28;20868;-73
2022/07/18 00:36:36;;;;;;;5.75;5.10;;;15.00;99.90;;;;;;5017872;28;20080;-73
2022/07/18 00:39:02;;;;;;;7.95;5.68;;;15.00;99.90;;;;;;5044281;28;20546;-74
2022/07/18 00:41:28;;;;;;;5.72;5.05;;;15.00;99.90;;;;;;5052781;28;20037;-74
2022/07/18 00:43:54;;;;;;;8.13;6.28;;;15.00;99.90;;;;;;5036958;28;20104;-74
2022/07/18 00:46:24;;;;;;;7.28;5.82;;;15.10;99.90;;;;;;5034610;28;20492;-74
2022/07/18 00:48:51;;;;;;;8.23;5.50;;;15.00;99.90;;;;;;5028464;28;20121;-73
2022/07/18 00:51:17;;;;;;;6.43;5.75;;;14.90;99.90;;;;;;5032354;28;20072;-74
2022/07/18 00:53:44;;;;;;;9.27;6.25;;;14.90;99.90;;;;;;5043097;28;20056;-73
2022/07/18 00:56:11;;;;;;;7.38;5.82;;;14.90;99.90;;;;;;5037837;28;20099;-74
2022/07/18 00:58:37;;;;;;;8.02;6.03;;;14.90;99.90;;;;;;5024196;28;20042;-73
2022/07/18 01:03:47;;;;;;;9.05;6.10;;;14.90;99.90;;;;;;5047485;28;20106;-74
2022/07/18 01:06:12;;;;;;;9.07;5.70;;;14.80;99.90;;;;;;5040241;28;20057;-75
2022/07/18 01:08:41;;;;;;;7.07;5.13;;;14.80;99.90;;;;;;5043762;28;20044;-73
2022/07/18 01:11:07;;;;;;;6.82;5.38;;;14.80;99.90;;;;;;5052186;28;20044;-73
2022/07/18 01:13:33;;;;;;;7.50;5.53;;;14.70;99.90;;;;;;5050864;28;20055;-73
2022/07/18 01:15:58;;;;;;;7.80;5.65;;;14.70;99.90;;;;;;5045654;28;20106;-74
2022/07/18 01:18:24;;;;;;;6.65;5.53;;;14.60;99.90;;;;;;5031570;28;20442;-74
2022/07/18 01:20:50;;;;;;;8.35;5.70;;;14.60;99.90;;;;;;5052109;28;20044;-74
2022/07/18 01:23:16;;;;;;;7.47;5.20;;;14.50;99.90;;;;;;5032261;28;20037;-73
2022/07/18 01:25:42;;;;;;;7.13;5.55;;;14.50;99.90;;;;;;5051767;28;20045;-73
2022/07/18 01:28:07;;;;;;;6.25;4.95;;;14.60;99.90;;;;;;5033986;28;20110;-73
2022/07/18 01:30:33;;;;;;;5.82;5.20;;;14.60;99.90;;;;;;5051271;28;20044;-73
2022/07/18 01:33:00;;;;;;;7.72;5.68;;;14.70;99.90;;;;;;5064982;28;20038;-73
2022/07/18 01:35:27;;;;;;;9.20;5.78;;;14.70;99.90;;;;;;5040360;28;20045;-74
2022/07/18 01:37:55;;;;;;;6.72;5.55;;;14.60;99.90;;;;;;5020924;28;20774;-74
2022/07/18 01:40:21;;;;;;;8.07;5.63;;;14.60;99.90;;;;;;5050423;28;20064;-74
2022/07/18 01:42:46;;;;;;;7.00;5.22;;;14.50;99.90;;;;;;5044850;28;20469;-74
2022/07/18 01:45:13;;;;;;;7.07;5.20;;;14.50;99.90;;;;;;5037535;28;20085;-74
2022/07/18 01:47:39;;;;;;;8.55;5.05;;;14.60;99.90;;;;;;5017936;28;20124;-73
2022/07/18 01:50:05;;;;;;;6.55;5.10;;;14.60;99.90;;;;;;5040486;28;20125;-74
2022/07/18 01:52:31;;;;;;;7.07;5.47;;;14.60;99.90;;;;;;5049336;28;20063;-73
2022/07/18 01:54:57;;;;;;;8.50;5.45;;;14.60;99.90;;;;;;5051618;28;20128;-74
2022/07/18 01:57:23;;;;;;;7.47;5.72;;;14.60;99.90;;;;;;5003712;28;20084;-73
2022/07/18 01:59:49;;;;;;;9.40;5.63;;;14.60;99.90;;;;;;5051359;28;20052;-74
2022/07/18 02:02:15;;;;;;;6.90;5.45;;;14.60;99.90;;;;;;5050479;28;20094;-73
2022/07/18 02:04:59;;;;;;;7.03;5.70;;;14.60;99.90;;;;;;5050989;28;20556;-74
2022/07/18 02:07:26;;;;;;;7.68;5.80;;;14.60;99.90;;;;;;5034348;28;20044;-72
2022/07/18 02:09:52;;;;;;;7.88;5.70;;;14.50;99.90;;;;;;5050769;28;20066;-73
2022/07/18 02:12:17;;;;;;;9.00;6.60;;;14.40;99.90;;;;;;5044267;28;20412;-74
2022/07/18 02:14:43;;;;;;;8.77;5.85;;;14.40;99.90;;;;;;5038439;28;20047;-73
2022/07/18 02:17:09;;;;;;;9.40;6.70;;;14.40;99.90;;;;;;5015643;28;20037;-73
2022/07/18 02:19:34;;;;;;;8.27;6.75;;;14.40;99.90;;;;;;5030345;28;20058;-73
2022/07/18 02:22:00;;;;;;;8.55;7.03;;;14.40;99.90;;;;;;5040032;28;20089;-72
2022/07/18 02:24:26;;;;;;;8.77;7.32;;;14.40;99.90;;;;;;5030903;28;20060;-73
2022/07/18 02:26:52;;;;;;;11.05;7.15;;;14.40;99.90;;;;;;5015251;28;20049;-73
2022/07/18 02:29:18;;;;;;;10.63;7.65;;;14.40;99.90;;;;;;5042742;28;20062;-73
2022/07/18 02:31:43;;;;;;;10.60;7.38;;;14.30;99.90;;;;;;5030412;28;20145;-74
2022/07/18 02:34:12;;;;;;;9.45;7.00;;;14.30;99.90;;;;;;5030351;28;20049;-72
2022/07/18 02:36:38;;;;;;;10.57;7.28;;;14.30;99.90;;;;;;5023409;28;20044;-73
2022/07/18 02:39:05;;;;;;;10.27;6.63;;;14.30;99.90;;;;;;5034819;28;20045;-73
2022/07/18 02:41:31;;;;;;;10.15;6.47;;;14.30;99.90;;;;;;5030124;28;20123;-73
2022/07/18 02:43:57;;;;;;;7.95;6.13;;;14.30;99.90;;;;;;5043445;28;20103;-73
2022/07/18 02:46:24;;;;;;;10.38;6.50;;;14.20;99.90;;;;;;5028927;28;20046;-74
2022/07/18 02:48:50;;;;;;;10.10;6.38;;;14.30;99.90;;;;;;5009575;28;20045;-74
2022/07/18 02:51:15;;;;;;;9.25;6.20;;;14.20;99.90;;;;;;5048562;28;20118;-73
2022/07/18 02:53:41;;;;;;;8.60;6.50;;;14.20;99.90;;;;;;5048284;28;20045;-74
2022/07/18 02:56:07;;;;;;;9.23;6.22;;;14.20;99.90;;;;;;5025789;28;20575;-75
2022/07/18 02:58:32;;;;;;;11.60;7.07;;;14.20;99.90;;;;;;5020628;28;20045;-73
2022/07/18 03:00:59;;;;;;;10.27;7.10;;;14.10;99.90;;;;;;5030596;28;20041;-73
2022/07/18 03:03:25;;;;;;;8.82;6.43;;;14.10;99.90;;;;;;5028821;28;20416;-74
2022/07/18 03:05:50;;;;;;;8.60;6.32;;;14.00;99.90;;;;;;5036743;28;20047;-73
2022/07/18 03:08:16;;;;;;;9.38;6.22;;;14.00;99.90;;;;;;5013432;28;20496;-73
2022/07/18 03:10:42;;;;;;;10.13;6.78;;;14.00;99.90;;;;;;5030634;28;20128;-73
2022/07/18 03:13:08;;;;;;;8.55;6.22;;;14.00;99.90;;;;;;5027871;28;20057;-73
2022/07/18 03:15:33;;;;;;;7.88;6.35;;;14.00;99.90;;;;;;5036893;28;20053;-72
2022/07/18 03:17:59;;;;;;;11.65;7.75;;;14.10;99.90;;;;;;5026980;28;20489;-72
2022/07/18 03:20:26;;;;;;;12.70;7.68;;;14.10;99.90;;;;;;5028825;28;20046;-73
2022/07/18 03:22:51;;;;;;;11.68;7.82;;;14.20;99.90;;;;;;5031014;28;20508;-73
2022/07/18 03:25:17;;;;;;;13.35;7.95;;;14.10;99.90;;;;;;5047035;28;20075;-72
2022/07/18 03:27:43;;;;;;;10.52;7.60;;;14.10;99.90;;;;;;5032689;28;20055;-73
2022/07/18 03:30:09;;;;;;;12.57;8.05;;;14.10;99.90;;;;;;5045199;28;20120;-73
2022/07/18 03:32:35;;;;;;;10.35;7.28;;;14.00;99.90;;;;;;5033780;28;20167;-72
2022/07/18 03:35:00;;;;;;;9.88;7.28;;;14.00;99.90;;;;;;5045360;28;20129;-72
2022/07/18 03:37:26;;;;;;;10.70;7.22;;;14.00;99.90;;;;;;5018817;28;20045;-72
2022/07/18 03:39:52;;;;;;;11.13;7.65;;;14.00;99.90;;;;;;5033938;28;20053;-73
2022/07/18 03:42:17;;;;;;;10.98;7.90;;;14.00;99.90;;;;;;5027961;28;20052;-72
2022/07/18 03:44:43;;;;;;;9.43;6.78;;;13.90;99.90;;;;;;5053248;28;20411;-72
2022/07/18 03:47:09;;;;;;;9.45;6.70;;;13.90;99.90;;;;;;5035884;28;20045;-71
2022/07/18 03:49:34;;;;;;;12.35;7.80;;;13.90;99.90;;;;;;5053272;28;20053;-72
2022/07/18 03:52:00;;;;;;;11.75;7.45;;;13.90;99.90;;;;;;5053596;28;20052;-72
2022/07/18 03:54:25;;;;;;;9.80;7.68;;;14.00;99.90;;;;;;5067818;28;20052;-72
2022/07/18 03:56:51;;;;;;;11.13;7.70;;;14.20;99.90;;;;;;5038277;28;20079;-72
2022/07/18 03:59:17;;;;;;;11.13;9.23;;;14.30;99.90;;;;;;5052437;28;20404;-71
2022/07/18 04:01:43;;;;;;;11.07;7.72;;;14.40;99.90;;;;;;5054032;28;20052;-72
2022/07/18 04:04:08;;;;;;;11.80;7.43;;;14.40;99.90;;;;;;5052121;28;20041;-72
2022/07/18 04:06:34;;;;;;;9.07;7.20;;;14.50;99.90;;;;;;5039420;28;20044;-73
2022/07/18 04:08:59;;;;;;;9.20;7.00;;;14.30;99.90;;;;;;5066259;28;20045;-72
2022/07/18 04:11:25;;;;;;;12.73;7.05;;;14.30;99.90;;;;;;5051593;28;20089;-72
2022/07/18 04:13:52;;;;;;;10.95;7.45;;;14.20;99.90;;;;;;5051821;28;20044;-72
2022/07/18 04:16:17;;;;;;;10.15;7.25;;;14.10;99.90;;;;;;5035876;28;20376;-73
2022/07/18 04:18:43;;;;;;;9.60;7.07;;;14.20;99.90;;;;;;5033405;28;20048;-72
2022/07/18 04:21:09;;;;;;;10.63;7.88;;;14.20;99.90;;;;;;5041079;28;20538;-72
2022/07/18 04:23:34;;;;;;;10.13;6.72;;;14.50;99.90;;;;;;5047333;28;20049;-72
2022/07/18 04:26:01;;;;;;;9.73;7.00;;;14.50;99.90;;;;;;5033273;28;20099;-72
2022/07/18 04:28:27;;;;;;;8.63;6.55;;;14.60;99.90;;;;;;5015724;28;20800;-72
2022/07/18 04:30:52;;;;;;;9.60;6.95;;;14.70;99.90;;;;;;5033150;28;20045;-72
2022/07/18 04:33:18;;;;;;;10.68;6.82;;;14.80;99.90;;;;;;5032036;28;20060;-73
2022/07/18 04:35:44;;;;;;;10.52;7.10;;;14.80;99.90;;;;;;5031087;28;20049;-73
2022/07/18 04:38:10;;;;;;;10.23;6.15;;;14.80;99.90;;;;;;5037494;28;20170;-72
2022/07/18 04:40:37;;;;;;;9.55;6.50;;;14.80;99.90;;;;;;5051251;28;20060;-73
2022/07/18 04:43:03;;;;;;;11.15;6.60;;;14.90;99.90;;;;;;5044376;28;20471;-72
2022/07/18 04:45:30;;;;;;;9.73;6.20;;;15.00;99.90;;;;;;5036581;28;20038;-73
2022/07/18 04:47:56;;;;;;;9.18;6.43;;;15.10;99.90;;;;;;5027734;28;20627;-72
2022/07/18 04:50:23;;;;;;;11.88;6.80;;;15.20;99.90;;;;;;5030691;28;20061;-72
2022/07/18 04:52:49;;;;;;;9.45;6.15;;;15.30;99.90;;;;;;5031800;28;20489;-71
2022/07/18 04:55:16;;;;;;;13.38;6.72;;;15.30;99.90;;;;;;5032209;28;20127;-72
2022/07/18 04:57:42;;;;;;;7.78;5.70;;;15.40;99.90;;;;;;5014575;28;20103;-72
2022/07/18 05:00:12;;;;;;;9.75;6.68;;;15.40;99.90;;;;;;5031764;28;20033;-72
2022/07/18 05:02:42;;;;;;;13.73;7.15;;;15.40;99.90;;;;;;5038368;28;20124;-72
2022/07/18 05:05:09;;;;;;;11.40;6.35;;;15.50;99.90;;;;;;5036224;28;20045;-71
2022/07/18 05:07:36;;;;;;;13.98;6.75;;;15.50;99.90;;;;;;5016056;28;20492;-72
2022/07/18 05:10:07;;;;;;;11.13;6.82;;;15.60;99.90;;;;;;5032622;28;20048;-72
2022/07/18 05:12:33;;;;;;;11.45;6.65;;;15.60;99.90;;;;;;5031273;28;20041;-72
2022/07/18 05:14:59;;;;;;;8.95;6.28;;;15.60;99.90;;;;;;5039572;28;20525;-72
2022/07/18 05:17:25;;;;;;;10.07;5.90;;;15.60;99.90;;;;;;5016147;28;20049;-71
2022/07/18 05:19:50;;;;;;;8.93;5.75;;;15.70;99.90;;;;;;5040256;28;20064;-72
2022/07/18 05:22:16;;;;;;;7.72;5.85;;;15.70;99.90;;;;;;5042391;28;20041;-72
2022/07/18 05:24:41;;;;;;;7.93;5.68;;;15.80;99.90;;;;;;5019490;28;20076;-72
2022/07/18 05:27:07;;;;;;;7.60;5.68;;;15.80;99.90;;;;;;5025401;28;20404;-72
2022/07/18 05:29:33;;;;;;;10.25;5.65;;;15.90;99.90;;;;;;5043304;28;20053;-73
2022/07/18 05:32:00;;;;;;;10.77;5.82;;;15.90;99.90;;;;;;5041767;28;20053;-72
2022/07/18 05:34:25;;;;;;;9.60;6.22;;;15.90;99.90;;;;;;5042824;28;20049;-73
2022/07/18 05:36:51;;;;;;;8.10;5.65;;;16.00;99.90;;;;;;5026321;28;20412;-73
2022/07/18 05:39:17;;;;;;;8.65;5.55;;;15.90;99.90;;;;;;5036426;28;20051;-72
2022/07/18 05:41:42;;;;;;;8.02;5.30;;;16.00;99.90;;;;;;5039387;28;20053;-73
2022/07/18 05:44:08;;;;;;;9.23;5.20;;;16.00;99.90;;;;;;5055205;28;20469;-73
2022/07/18 05:46:33;;;;;;;6.85;5.00;;;16.00;99.90;;;;;;5024760;28;20175;-73
2022/07/18 05:48:59;;;;;;;10.05;5.00;;;16.00;99.90;;;;;;5036960;28;20385;-73
2022/07/18 05:51:25;;;;;;;9.25;5.25;;;16.00;99.90;;;;;;5037657;28;20068;-73
2022/07/18 05:53:50;;;;;;;9.32;5.30;;;16.20;99.90;;;;;;5035983;28;20041;-72
2022/07/18 05:56:16;;;;;;;10.55;5.72;;;16.20;99.90;;;;;;5028572;28;20037;-73
2022/07/18 05:58:42;;;;;;;10.15;4.95;;;16.30;99.90;;;;;;5021783;28;20107;-72
2022/07/18 06:01:07;;;;;;;8.93;4.47;;;16.40;99.90;;;;;;5038487;28;20049;-73
2022/07/18 06:03:33;;;;;;;9.95;5.20;;;16.40;99.90;;;;;;5037437;28;20133;-72
2022/07/18 06:05:59;;;;;;;8.10;4.28;;;16.50;99.90;;;;;;5037673;28;20052;-73
2022/07/18 06:08:24;;;;;;;8.25;4.40;;;16.60;99.90;;;;;;5020693;28;20144;-73
2022/07/18 06:10:50;;;;;;;8.02;4.63;;;16.60;99.90;;;;;;5037182;28;20128;-73
2022/07/18 06:13:16;;;;;;;6.38;4.32;;;16.70;99.90;;;;;;5044307;28;20052;-73
2022/07/18 06:15:42;;;;;;;8.63;4.20;;;16.70;99.90;;;;;;5043407;28;20053;-74
2022/07/18 06:18:07;;;;;;;8.32;4.55;;;16.80;99.90;;;;;;5020859;28;20520;-73
2022/07/18 06:20:33;;;;;;;7.03;4.03;;;16.90;99.90;;;;;;5039065;28;20094;-73
2022/07/18 06:22:58;;;;;;;5.55;3.75;;;17.00;99.90;;;;;;5033239;28;20381;-74
2022/07/18 06:25:24;;;;;;;6.53;3.97;;;17.10;99.90;;;;;;5031553;28;20049;-74
2022/07/18 06:27:50;;;;;;;7.20;3.80;;;17.20;99.90;;;;;;5013723;28;20113;-73
2022/07/18 06:30:16;;;;;;;8.40;3.88;;;17.30;99.90;;;;;;5042193;28;20072;-74
2022/07/18 06:32:42;;;;;;;8.20;3.40;;;17.50;99.90;;;;;;5046260;28;20057;-73
2022/07/18 06:35:08;;;;;;;9.10;3.47;;;17.60;99.90;;;;;;5039364;28;20061;-73
2022/07/18 06:37:34;;;;;;;5.82;2.70;;;17.70;99.90;;;;;;5013059;28;20114;-75
2022/07/18 06:39:59;;;;;;;5.38;2.92;;;17.90;99.90;;;;;;5039018;28;20041;-74
2022/07/18 06:42:25;;;;;;;4.45;2.70;;;17.90;99.90;;;;;;5033951;28;20408;-74
2022/07/18 06:44:50;;;;;;;7.32;2.72;;;17.90;99.90;;;;;;5048484;28;20656;-74
2022/07/18 06:47:16;;;;;;;8.23;2.70;;;18.00;99.90;;;;;;5019732;28;20037;-73
2022/07/18 06:49:42;;;;;;;4.85;2.35;;;18.10;99.90;;;;;;5036282;28;20633;-73
2022/07/18 06:52:11;;;;;;;5.95;2.95;;;18.30;99.90;;;;;;5031989;28;20120;-72
2022/07/18 06:54:38;;;;;;;4.35;2.28;;;18.40;99.90;;;;;;5042382;28;20053;-73
2022/07/18 06:57:07;;;;;;;7.53;2.70;;;18.50;99.90;;;;;;5032810;28;20049;-73
2022/07/18 06:59:33;;;;;;;4.10;2.42;;;18.60;99.90;;;;;;5049671;28;20045;-75
2022/07/18 07:01:59;;;;;;;5.32;2.50;;;18.60;99.90;;;;;;5045530;28;20055;-74
2022/07/18 07:04:25;;;;;;;6.18;2.58;;;18.60;99.90;;;;;;5053368;28;20408;-74
2022/07/18 07:06:51;;;;;;;5.07;2.70;;;18.70;99.90;;;;;;5008219;28;20076;-74
2022/07/18 07:09:16;;;;;;;5.93;2.55;;;18.80;99.90;;;;;;5038516;28;20064;-75
2022/07/18 07:11:42;;;;;;;5.40;2.58;;;18.90;99.90;;;;;;5045754;28;20041;-75
2022/07/18 07:14:08;;;;;;;4.55;2.30;;;18.90;99.90;;;;;;5034153;28;20045;-73
2022/07/18 07:16:33;;;;;;;4.97;2.17;;;19.00;99.90;;;;;;5011287;28;20057;-74
2022/07/18 07:18:59;;;;;;;4.68;2.22;;;19.10;99.90;;;;;;5050559;28;20102;-74
2022/07/18 07:21:24;;;;;;;4.10;2.03;;;19.20;99.90;;;;;;5046397;28;20033;-74
2022/07/18 07:23:50;;;;;;;5.85;2.50;;;19.30;99.90;;;;;;5038041;28;20045;-75
2022/07/18 07:26:16;;;;;;;4.85;2.50;;;19.40;99.90;;;;;;5008237;28;20049;-75
2022/07/18 07:28:42;;;;;;;4.93;2.25;;;19.60;99.90;;;;;;5035340;28;20535;-74
2022/07/18 07:31:07;;;;;;;7.10;2.30;;;19.80;99.90;;;;;;5027254;28;20060;-74
2022/07/18 07:33:34;;;;;;;4.07;2.00;;;20.00;99.90;;;;;;5032796;28;20503;-75
2022/07/18 07:36:01;;;;;;;3.80;2.15;;;20.10;99.90;;;;;;5037129;28;20037;-74
2022/07/18 07:38:28;;;;;;;4.47;2.20;;;20.40;99.90;;;;;;5004711;28;20321;-74
2022/07/18 07:40:55;;;;;;;5.68;2.20;;;20.50;99.90;;;;;;5040827;28;20053;-74
2022/07/18 07:43:21;;;;;;;4.75;2.20;;;20.60;99.90;;;;;;5029439;28;20519;-74
2022/07/18 07:45:48;;;;;;;4.95;2.10;;;20.60;99.90;;;;;;5038766;28;20069;-73
2022/07/18 07:48:15;;;;;;;3.67;1.80;;;20.60;99.90;;;;;;5019296;28;20045;-73
2022/07/18 07:50:41;;;;;;;4.68;1.92;;;20.60;99.90;;;;;;5034835;28;20128;-74
2022/07/18 07:53:07;;;;;;;5.68;2.20;;;20.70;99.90;;;;;;5036110;28;20156;-74
2022/07/18 07:55:33;;;;;;;6.22;1.92;;;20.80;99.90;;;;;;5042004;28;20088;-74
2022/07/18 07:57:59;;;;;;;8.23;2.30;;;21.00;99.90;;;;;;5012121;28;20041;-73
2022/07/18 08:00:25;;;;;;;5.15;1.65;;;21.10;99.90;;;;;;5033653;28;20052;-74
2022/07/18 08:02:52;;;;;;;5.72;1.73;;;21.30;99.90;;;;;;5043845;28;20045;-75
2022/07/18 08:05:18;;;;;;;5.75;2.10;;;21.40;99.90;;;;;;5043357;28;20048;-76
2022/07/18 08:07:43;;;;;;;3.75;1.75;;;21.40;99.90;;;;;;5018754;28;20049;-75
2022/07/18 08:10:09;;;;;;;5.60;1.83;;;21.50;99.90;;;;;;5046588;28;20044;-74
2022/07/18 08:12:35;;;;;;;4.70;1.50;;;21.60;99.90;;;;;;5037852;28;20087;-73
2022/07/18 08:15:00;;;;;;;1.65;1.48;;;21.70;99.90;;;;;;5036558;28;20037;-73
2022/07/18 08:17:26;;;;;;;3.72;1.45;;;21.80;99.90;;;;;;5021633;28;20041;-72
2022/07/18 08:19:52;;;;;;;6.10;1.50;;;22.10;99.90;;;;;;5036601;28;20088;-73
2022/07/18 08:22:17;;;;;;;4.30;1.42;;;22.10;99.90;;;;;;5033802;28;20057;-73
2022/07/18 08:24:43;;;;;;;3.33;1.30;;;22.20;99.90;;;;;;5045956;28;20041;-75
2022/07/18 08:27:09;;;;;;;3.53;1.38;;;22.40;99.90;;;;;;5036599;28;20049;-73
2022/07/18 08:29:35;;;;;;;2.72;1.15;;;22.50;99.90;;;;;;5034456;28;20052;-75
2022/07/18 08:32:01;;;;;;;4.82;1.60;;;22.60;99.90;;;;;;5052269;28;20536;-73
2022/07/18 08:34:27;;;;;;;3.78;1.38;;;22.70;99.90;;;;;;5046686;28;20056;-75
2022/07/18 08:36:52;;;;;;;5.30;1.35;;;22.80;99.90;;;;;;5040108;28;20467;-74
2022/07/18 08:39:18;;;;;;;2.28;1.08;;;22.90;99.90;;;;;;5039401;28;20056;-75
2022/07/18 08:41:47;;;;;;;4.53;1.05;;;22.90;99.90;;;;;;5051076;28;20130;-75
2022/07/18 08:44:13;;;;;;;4.25;1.40;;;23.00;99.90;;;;;;5035649;28;20148;-75
2022/07/18 08:46:40;;;;;;;4.57;1.20;;;22.80;99.90;;;;;;5027364;28;20132;-74
2022/07/18 08:49:07;;;;;;;2.55;1.08;;;22.80;99.90;;;;;;5030599;28;20099;-73
2022/07/18 08:51:34;;;;;;;8.98;1.20;;;22.70;99.90;;;;;;5043224;28;20107;-74
2022/07/18 08:54:01;;;;;;;4.30;1.30;;;22.70;99.90;;;;;;5037886;28;20060;-74
2022/07/18 08:56:27;;;;;;;5.00;1.38;;;22.70;99.90;;;;;;5039597;28;20495;-75
2022/07/18 08:58:53;;;;;;;3.47;1.20;;;22.70;99.90;;;;;;5044230;28;20135;-75
2022/07/18 09:01:18;;;;;;;2.97;1.15;;;22.70;99.90;;;;;;5047621;28;20480;-75
2022/07/18 09:03:44;;;;;;;4.13;1.17;;;22.80;99.90;;;;;;5046938;28;20037;-75
2022/07/18 09:06:12;;;;;;;4.50;1.20;;;22.80;99.90;;;;;;5024314;28;20468;-78
2022/07/18 09:08:40;;;;;;;6.50;1.40;;;22.90;99.90;;;;;;5027617;28;20050;-74
2022/07/18 09:11:11;;;;;;;4.05;1.35;;;22.90;99.90;;;;;;5030079;28;20103;-75
2022/07/18 09:13:39;;;;;;;3.13;1.08;;;23.00;99.90;;;;;;5049529;28;20159;-76
2022/07/18 09:16:12;;;;;;;2.80;1.40;;;23.10;99.90;;;;;;5045020;28;20506;-78
2022/07/18 09:18:46;;;;;;;7.70;1.20;;;23.20;99.90;;;;;;5044650;28;20102;-74
2022/07/18 09:21:19;;;;;;;3.28;1.13;;;23.30;99.90;;;;;;5042110;28;20151;-75
2022/07/18 09:23:49;;;;;;;4.35;1.20;;;23.50;99.90;;;;;;5052195;28;20067;-75
2022/07/18 09:26:35;;;;;;;4.68;1.10;;;23.50;99.40;;;;;;5028781;28;20067;-74
2022/07/18 09:29:01;;;;;;;3.95;1.33;;;23.60;99.90;;;;;;5031180;28;20412;-74
2022/07/18 09:31:27;;;;;;;4.65;1.10;;;23.70;98.20;;;;;;5036959;28;20068;-75
2022/07/18 09:33:54;;;;;;;7.32;1.42;;;23.80;99.40;;;;;;5040056;28;20049;-74
2022/07/18 09:36:20;;;;;;;4.63;1.42;;;23.90;99.90;;;;;;5024398;28;20060;-75
2022/07/18 09:38:45;;;;;;;3.70;1.20;;;23.90;99.20;;;;;;5036696;28;20088;-75
2022/07/18 09:41:11;;;;;;;6.07;1.35;;;23.90;98.10;;;;;;5035999;28;20076;-75
2022/07/18 09:43:38;;;;;;;4.45;1.20;;;23.90;97.80;;;;;;5037924;28;20083;-76
2022/07/18 09:46:05;;;;;;;6.90;1.52;;;23.90;98.40;;;;;;5036999;28;20049;-74
2022/07/18 09:48:30;;;;;;;3.72;1.20;;;24.10;98.10;;;;;;5022663;28;20412;-74
2022/07/18 09:51:05;;;;;;;5.70;1.60;;;24.10;98.30;;;;;;5024107;28;20069;-76
2022/07/18 09:53:32;;;;;;;5.20;1.50;;;24.30;97.70;;;;;;5036500;28;20041;-74
2022/07/18 09:56:03;;;;;;;4.18;1.52;;;24.30;98.10;;;;;;5028825;28;20144;-74
2022/07/18 09:58:31;;;;;;;4.00;1.27;;;24.40;99.40;;;;;;5019714;28;20048;-74
2022/07/18 10:01:00;;;;;;;5.13;1.77;;;24.50;97.20;;;;;;5035672;28;20138;-75
2022/07/18 10:03:27;;;;;;;1.98;1.00;;;24.60;96.70;;;;;;5039263;28;20421;-75
2022/07/18 10:05:55;;;;;;;3.35;1.63;;;24.70;97.30;;;;;;5055517;28;20085;-73
2022/07/18 10:08:24;;;;;;;6.18;1.60;;;24.70;99.30;;;;;;5033261;28;20051;-74
2022/07/18 10:10:52;;;;;;;5.90;1.50;;;24.80;96.20;;;;;;5036558;28;20412;-74
2022/07/18 10:13:19;;;;;;;4.05;1.48;;;24.80;95.50;;;;;;5035836;28;20048;-74
2022/07/18 10:15:46;;;;;;;4.93;1.30;;;24.80;94.00;;;;;;5041312;28;20076;-74
2022/07/18 10:18:14;;;;;;;5.03;1.38;;;24.90;97.00;;;;;;5023174;28;20048;-75
2022/07/18 10:20:57;;;;;;;4.55;1.38;;;25.00;96.00;;;;;;5034448;28;20057;-74
2022/07/18 10:23:35;;;;;;;4.85;1.80;;;25.00;95.00;;;;;;5037268;28;20041;-77
2022/07/18 10:26:15;;;;;;;3.22;1.50;;;25.00;95.60;;;;;;5035469;28;20072;-74
2022/07/18 10:28:56;;;;;;;4.07;1.88;;;25.20;91.80;;;;;;5031192;28;20076;-75
2022/07/18 10:31:31;;;;;;;;;;;25.20;90.00;;;;;;5036819;28;20508;-74
2022/07/18 10:34:28;;;;;;;6.20;1.73;;;25.30;92.20;;;;;;5034314;28;19929;-73
2022/07/18 10:37:00;;;;;;;4.82;1.70;;;25.40;88.60;;;;;;5020324;28;20060;-74
2022/07/18 10:39:34;;;;;;;4.97;2.00;;;25.40;92.90;;;;;;5036154;28;20064;-74
2022/07/18 10:42:01;;;;;;;2.97;1.70;;;25.50;88.50;;;;;;5034111;28;20067;-74
2022/07/18 10:44:29;;;;;;;3.90;2.03;;;25.60;88.20;;;;;;5035620;28;20048;-75
2022/07/18 10:47:11;;;;;;;3.72;2.25;;;25.60;86.70;;;;;;5023390;28;20102;-74
2022/07/18 10:49:49;;;;;;;4.97;2.17;;;25.60;80.80;;;;;;5029843;28;20041;-75
2022/07/18 10:52:29;;;;;;;3.70;2.17;;;25.70;81.10;;;;;;5033180;28;20102;-73
2022/07/18 10:55:22;;;;;;;5.10;2.22;;;25.70;83.90;;;;;;5038212;28;21790;-78
2022/07/18 10:57:50;;;;;;;4.78;1.88;;;25.80;84.10;;;;;;5021484;28;20190;-73
2022/07/18 11:00:24;;;;;;;4.05;2.17;;;26.00;79.80;;;;;;5034444;28;20045;-74
2022/07/18 11:03:05;;;;;;;5.35;2.58;;;26.10;79.90;;;;;;5035194;28;20114;-73
2022/07/18 11:05:31;;;;;;;4.30;2.75;;;26.20;79.60;;;;;;5039643;28;20456;-75
2022/07/18 11:08:03;;;;;;;3.95;2.38;;;26.10;77.00;;;;;;5017197;28;20233;-75
2022/07/18 11:10:41;;;;;;;6.28;2.15;;;26.10;79.20;;;;;;5036736;28;20135;-74
2022/07/18 11:13:35;;;;;;;7.03;2.78;;;26.20;78.30;;;;;;5035960;28;20408;-76
2022/07/18 11:16:15;;;;;;;4.28;2.05;;;26.40;78.90;;;;;;5045239;28;20048;-74
2022/07/18 11:18:40;;;;;;;6.60;2.42;;;26.40;82.30;;;;;;5029257;28;20910;-75
2022/07/18 11:21:27;;;;;;;2.70;2.15;;;26.40;82.00;;;;;;5034026;28;20054;-74
2022/07/18 11:23:54;;;;;;;7.18;2.28;;;26.50;82.60;;;;;;5038068;28;20059;-73
2022/07/18 11:26:22;;;;;;;6.65;3.13;;;26.60;79.80;;;;;;5023003;28;20056;-74
2022/07/18 11:28:56;;;;;;;3.55;2.20;;;26.50;74.70;;;;;;5033189;28;20543;-74
2022/07/18 11:31:22;;;;;;;7.85;2.80;;;26.50;73.80;;;;;;5031473;28;20662;-74
2022/07/18 11:33:49;;;;;;;4.82;2.60;;;26.60;74.30;;;;;;5039246;28;20538;-74
2022/07/18 11:36:21;;;;;;;4.40;2.85;;;26.60;72.30;;;;;;5026097;28;20075;-74
2022/07/18 11:38:55;;;;;;;5.97;2.40;;;26.60;73.30;;;;;;5037114;28;20043;-74
2022/07/18 11:41:22;;;;;;;4.80;2.60;;;26.60;74.70;;;;;;5035857;28;20085;-74
2022/07/18 11:43:50;;;;;;;4.82;2.35;;;26.60;73.20;;;;;;5033208;28;20083;-75
2022/07/18 11:46:18;;;;;;;3.53;2.50;;;26.60;73.50;;;;;;5042870;28;20053;-76
2022/07/18 11:48:46;;;;;;;6.53;2.55;;;26.60;72.80;;;;;;5029959;28;20051;-75
2022/07/18 11:51:19;;;;;;;5.85;2.33;;;26.70;75.80;;;;;;5039416;28;20049;-74
2022/07/18 11:53:46;;;;;;;5.90;2.65;;;26.70;75.90;;;;;;5034927;28;20045;-76
2022/07/18 11:56:12;;;;;;;4.10;2.70;;;26.70;72.90;;;;;;5033519;28;20052;-76
2022/07/18 11:58:40;;;;;;;5.93;2.80;;;26.80;73.80;;;;;;5036560;28;20064;-76
2022/07/18 12:01:06;;;;;;;4.47;2.53;;;26.90;73.30;;;;;;5048764;28;20136;-75
2022/07/18 12:03:35;;;;;;;6.10;2.47;;;27.00;72.10;;;;;;5043588;28;20056;-75
2022/07/18 12:06:20;;;;;;;3.95;2.40;;;27.00;72.10;;;;;;5037638;28;20122;-76
2022/07/18 12:08:48;;;;;;;4.80;2.35;;;26.80;72.10;;;;;;5035112;28;20069;-76
2022/07/18 12:11:28;;;;;;;2.90;2.25;;;27.00;72.40;;;;;;5052564;28;20059;-76
2022/07/18 12:13:58;;;;;;;5.70;2.60;;;27.10;72.10;;;;;;5038743;28;20056;-75
2022/07/18 12:16:29;;;;;;;3.70;2.33;;;27.00;71.30;;;;;;5028154;28;20056;-77
2022/07/18 12:19:08;;;;;;;5.20;2.83;;;27.20;76.70;;;;;;5035493;28;21179;-78
2022/07/18 12:21:43;;;;;;;5.03;2.40;;;27.40;72.10;;;;;;5055590;28;20326;-76
2022/07/18 12:24:19;;;;;;;5.43;2.70;;;27.30;72.00;;;;;;5037111;28;20416;-76
2022/07/18 12:26:45;;;;;;;4.20;2.40;;;27.40;70.10;;;;;;5023072;28;20057;-76
2022/07/18 12:29:11;;;;;;;5.10;2.78;;;27.50;71.10;;;;;;5040389;28;20044;-75
2022/07/18 12:31:40;;;;;;;4.28;2.50;;;27.30;74.90;;;;;;5037369;28;20554;-77
2022/07/18 12:34:11;;;;;;;6.65;3.10;;;27.30;73.80;;;;;;5037515;28;20053;-75
2022/07/18 12:36:57;;;;;;;4.03;2.38;;;27.40;74.10;;;;;;5042151;28;20033;-76
2022/07/18 12:39:33;;;;;;;7.53;2.97;;;27.40;72.60;;;;;;5038541;28;20061;-75
2022/07/18 12:42:00;;;;;;;5.90;2.67;;;27.60;71.40;;;;;;5038819;28;20351;-74
2022/07/18 12:44:27;;;;;;;5.65;3.22;;;27.60;72.20;;;;;;5040171;28;20045;-75
2022/07/18 12:46:53;;;;;;;4.25;2.10;;;27.30;75.30;;;;;;5021069;28;20067;-75
2022/07/18 12:49:19;;;;;;;5.30;2.50;;;27.20;75.20;;;;;;5040536;28;20040;-75